sensor_id;sensor_type;location;lat;lon;timestamp;temperature;humidity
8850;DHT22;5638;50.860;4.698;2022-12-29T00:00:07;13.00;99.90
8850;DHT22;5638;50.860;4.698;2022-12-29T00:02:35;12.90;99.90
8850;DHT22;5638;50.860;4.698;2022-12-29T00:05:02;12.90;99.90
8850;DHT22;5638;50.860;4.698;2022-12-29T00:07:28;12.90;99.90
8850;DHT22;5638;50.860;4.698;2022-12-29T00:09:53;12.90;99.90
8850;DHT22;5638;50.860;4.698;2022-12-29T00:12:19;12.90;99.90
8850;DHT22;5638;50.860;4.698;2022-12-29T00:14:45;13.00;99.90
8850;DHT22;5638;50.860;4.698;2022-12-29T00:17:29;13.00;99.90
8850;DHT22;5638;50.860;4.698;2022-12-29T00:19:55;13.00;99.90
8850;DHT22;5638;50.860;4.698;2022-12-29T00:22:39;13.00;99.90
8850;DHT22;5638;50.860;4.698;2022-12-29T00:25:23;13.00;99.90
8850;DHT22;5638;50.860;4.698;2022-12-29T00:28:09;13.10;99.90
8850;DHT22;5638;50.860;4.698;2022-12-29T00:30:54;13.00;99.90
8850;DHT22;5638;50.860;4.698;2022-12-29T00:33:43;13.00;99.90
8850;DHT22;5638;50.860;4.698;2022-12-29T00:36:36;13.10;99.90
8850;DHT22;5638;50.860;4.698;2022-12-29T00:39:13;13.20;99.90
8850;DHT22;5638;50.860;4.698;2022-12-29T00:42:05;13.10;99.90
8850;DHT22;5638;50.860;4.698;2022-12-29T00:44:51;13.20;99.90
8850;DHT22;5638;50.860;4.698;2022-12-29T00:47:17;13.10;99.90
8850;DHT22;5638;50.860;4.698;2022-12-29T00:49:43;13.10;99.90
8850;DHT22;5638;50.860;4.698;2022-12-29T00:52:13;13.10;99.90
8850;DHT22;5638;50.860;4.698;2022-12-29T00:54:40;13.10;99.90
8850;DHT22;5638;50.860;4.698;2022-12-29T00:57:08;13.00;99.90
8850;DHT22;5638;50.860;4.698;2022-12-29T00:59:35;13.00;99.90
8850;DHT22;5638;50.860;4.698;2022-12-29T01:02:02;13.00;99.90
8850;DHT22;5638;50.860;4.698;2022-12-29T01:04:28;13.00;99.90
8850;DHT22;5638;50.860;4.698;2022-12-29T01:06:54;13.00;99.90
8850;DHT22;5638;50.860;4.698;2022-12-29T01:09:20;13.10;99.90
8850;DHT22;5638;50.860;4.698;2022-12-29T01:12:06;13.10;99.90
8850;DHT22;5638;50.860;4.698;2022-12-29T01:14:33;13.00;99.90
8850;DHT22;5638;50.860;4.698;2022-12-29T01:17:00;13.10;99.90
8850;DHT22;5638;50.860;4.698;2022-12-29T01:19:26;13.10;99.90
8850;DHT22;5638;50.860;4.698;2022-12-29T01:21:52;13.10;99.90
8850;DHT22;5638;50.860;4.698;2022-12-29T01:24:21;13.10;99.90
8850;DHT22;5638;50.860;4.698;2022-12-29T01:26:47;13.00;99.90
8850;DHT22;5638;50.860;4.698;2022-12-29T01:29:14;13.00;99.90
8850;DHT22;5638;50.860;4.698;2022-12-29T01:31:40;13.00;99.90
8850;DHT22;5638;50.860;4.698;2022-12-29T01:34:06;12.90;99.90
8850;DHT22;5638;50.860;4.698;2022-12-29T01:36:32;12.90;99.90
8850;DHT22;5638;50.860;4.698;2022-12-29T01:38:59;12.90;99.90
8850;DHT22;5638;50.860;4.698;2022-12-29T01:41:25;12.90;99.90
8850;DHT22;5638;50.860;4.698;2022-12-29T01:43:56;12.90;99.90
8850;DHT22;5638;50.860;4.698;2022-12-29T01:46:40;12.90;99.90
8850;DHT22;5638;50.860;4.698;2022-12-29T01:54:28;12.60;99.90
8850;DHT22;5638;50.860;4.698;2022-12-29T01:56:59;12.60;99.90
8850;DHT22;5638;50.860;4.698;2022-12-29T01:59:33;12.50;99.90
8850;DHT22;5638;50.860;4.698;2022-12-29T02:02:04;12.50;99.90
8850;DHT22;5638;50.860;4.698;2022-12-29T02:04:32;12.50;99.90
8850;DHT22;5638;50.860;4.698;2022-12-29T02:07:04;12.40;99.90
8850;DHT22;5638;50.860;4.698;2022-12-29T02:09:34;12.40;99.90
8850;DHT22;5638;50.860;4.698;2022-12-29T02:12:00;12.30;99.90
8850;DHT22;5638;50.860;4.698;2022-12-29T02:14:28;12.40;99.90
8850;DHT22;5638;50.860;4.698;2022-12-29T02:22:50;12.40;99.90
8850;DHT22;5638;50.860;4.698;2022-12-29T02:37:34;12.70;99.90
8850;DHT22;5638;50.860;4.698;2022-12-29T02:43:08;12.70;99.90
8850;DHT22;5638;50.860;4.698;2022-12-29T02:45:59;12.80;99.90
8850;DHT22;5638;50.860;4.698;2022-12-29T02:48:43;12.70;99.90
8850;DHT22;5638;50.860;4.698;2022-12-29T02:51:25;12.60;99.90
8850;DHT22;5638;50.860;4.698;2022-12-29T02:53:56;12.60;99.90
8850;DHT22;5638;50.860;4.698;2022-12-29T02:56:41;12.60;99.90
8850;DHT22;5638;50.860;4.698;2022-12-29T02:59:08;12.50;99.90
8850;DHT22;5638;50.860;4.698;2022-12-29T03:02:31;12.60;99.90
8850;DHT22;5638;50.860;4.698;2022-12-29T03:08:48;12.60;99.90
8850;DHT22;5638;50.860;4.698;2022-12-29T03:11:35;12.70;99.90
8850;DHT22;5638;50.860;4.698;2022-12-29T03:14:37;12.60;99.90
8850;DHT22;5638;50.860;4.698;2022-12-29T03:17:48;12.50;99.90
8850;DHT22;5638;50.860;4.698;2022-12-29T03:20:39;12.60;99.90
8850;DHT22;5638;50.860;4.698;2022-12-29T03:23:12;12.30;99.90
8850;DHT22;5638;50.860;4.698;2022-12-29T03:25:43;12.20;99.90
8850;DHT22;5638;50.860;4.698;2022-12-29T03:28:24;12.20;99.90
8850;DHT22;5638;50.860;4.698;2022-12-29T03:30:57;12.20;99.90
8850;DHT22;5638;50.860;4.698;2022-12-29T03:33:27;12.10;99.90
8850;DHT22;5638;50.860;4.698;2022-12-29T03:36:01;12.00;99.90
8850;DHT22;5638;50.860;4.698;2022-12-29T03:41:16;11.90;99.90
8850;DHT22;5638;50.860;4.698;2022-12-29T03:43:46;12.00;99.90
8850;DHT22;5638;50.860;4.698;2022-12-29T03:46:12;11.90;99.90
8850;DHT22;5638;50.860;4.698;2022-12-29T03:48:38;11.90;99.90
8850;DHT22;5638;50.860;4.698;2022-12-29T03:51:04;12.00;99.90
8850;DHT22;5638;50.860;4.698;2022-12-29T03:53:30;12.10;99.90
8850;DHT22;5638;50.860;4.698;2022-12-29T03:55:55;12.10;99.90
8850;DHT22;5638;50.860;4.698;2022-12-29T03:58:21;12.10;99.90
8850;DHT22;5638;50.860;4.698;2022-12-29T04:00:47;12.20;99.90
8850;DHT22;5638;50.860;4.698;2022-12-29T04:03:13;12.20;99.90
8850;DHT22;5638;50.860;4.698;2022-12-29T04:05:39;12.30;99.90
8850;DHT22;5638;50.860;4.698;2022-12-29T04:08:05;12.20;99.90
8850;DHT22;5638;50.860;4.698;2022-12-29T04:10:31;12.20;99.90
8850;DHT22;5638;50.860;4.698;2022-12-29T04:12:56;12.20;99.90
8850;DHT22;5638;50.860;4.698;2022-12-29T04:15:22;12.20;99.90
8850;DHT22;5638;50.860;4.698;2022-12-29T04:17:49;12.20;99.90
8850;DHT22;5638;50.860;4.698;2022-12-29T04:20:15;12.30;99.90
8850;DHT22;5638;50.860;4.698;2022-12-29T04:23:03;12.30;99.90
8850;DHT22;5638;50.860;4.698;2022-12-29T04:25:31;12.30;99.90
8850;DHT22;5638;50.860;4.698;2022-12-29T04:27:58;12.30;99.90
8850;DHT22;5638;50.860;4.698;2022-12-29T04:30:24;12.30;99.90
8850;DHT22;5638;50.860;4.698;2022-12-29T04:32:50;12.20;99.90
8850;DHT22;5638;50.860;4.698;2022-12-29T04:35:16;12.20;99.90
8850;DHT22;5638;50.860;4.698;2022-12-29T04:37:42;12.10;99.90
8850;DHT22;5638;50.860;4.698;2022-12-29T04:40:08;12.10;99.90
8850;DHT22;5638;50.860;4.698;2022-12-29T04:42:35;12.00;99.90
8850;DHT22;5638;50.860;4.698;2022-12-29T04:45:01;12.10;99.90
8850;DHT22;5638;50.860;4.698;2022-12-29T04:47:27;12.10;99.90
8850;DHT22;5638;50.860;4.698;2022-12-29T04:49:52;12.10;99.90
8850;DHT22;5638;50.860;4.698;2022-12-29T04:52:18;12.20;99.90
8850;DHT22;5638;50.860;4.698;2022-12-29T04:54:44;12.20;99.90
8850;DHT22;5638;50.860;4.698;2022-12-29T04:57:10;12.10;99.90
8850;DHT22;5638;50.860;4.698;2022-12-29T04:59:36;12.10;99.90
8850;DHT22;5638;50.860;4.698;2022-12-29T05:02:02;12.20;99.90
8850;DHT22;5638;50.860;4.698;2022-12-29T05:04:28;12.30;99.90
8850;DHT22;5638;50.860;4.698;2022-12-29T05:06:54;12.30;99.90
8850;DHT22;5638;50.860;4.698;2022-12-29T05:09:19;12.20;99.90
8850;DHT22;5638;50.860;4.698;2022-12-29T05:11:45;12.30;99.90
8850;DHT22;5638;50.860;4.698;2022-12-29T05:14:11;12.30;99.90
8850;DHT22;5638;50.860;4.698;2022-12-29T05:16:37;12.30;99.90
8850;DHT22;5638;50.860;4.698;2022-12-29T05:19:03;12.30;99.90
8850;DHT22;5638;50.860;4.698;2022-12-29T05:21:29;12.40;99.90
8850;DHT22;5638;50.860;4.698;2022-12-29T05:23:54;12.40;99.90
8850;DHT22;5638;50.860;4.698;2022-12-29T05:26:20;12.40;99.90
8850;DHT22;5638;50.860;4.698;2022-12-29T05:28:46;12.50;99.90
8850;DHT22;5638;50.860;4.698;2022-12-29T05:31:12;12.50;99.90
8850;DHT22;5638;50.860;4.698;2022-12-29T05:33:38;12.50;99.90
8850;DHT22;5638;50.860;4.698;2022-12-29T05:36:05;12.50;99.90
8850;DHT22;5638;50.860;4.698;2022-12-29T05:38:32;12.50;99.90
8850;DHT22;5638;50.860;4.698;2022-12-29T05:40:58;12.50;99.90
8850;DHT22;5638;50.860;4.698;2022-12-29T05:43:24;12.60;99.90
8850;DHT22;5638;50.860;4.698;2022-12-29T05:45:49;12.60;99.90
8850;DHT22;5638;50.860;4.698;2022-12-29T05:48:16;12.50;99.90
8850;DHT22;5638;50.860;4.698;2022-12-29T05:50:41;12.50;99.90
8850;DHT22;5638;50.860;4.698;2022-12-29T05:53:07;12.40;99.90
8850;DHT22;5638;50.860;4.698;2022-12-29T05:55:34;12.40;99.90
8850;DHT22;5638;50.860;4.698;2022-12-29T05:58:00;12.40;99.90
8850;DHT22;5638;50.860;4.698;2022-12-29T06:00:26;12.50;99.90
8850;DHT22;5638;50.860;4.698;2022-12-29T06:02:51;12.40;99.90
8850;DHT22;5638;50.860;4.698;2022-12-29T06:05:17;12.50;99.90
8850;DHT22;5638;50.860;4.698;2022-12-29T06:07:43;12.40;99.90
8850;DHT22;5638;50.860;4.698;2022-12-29T06:10:11;12.50;99.90
8850;DHT22;5638;50.860;4.698;2022-12-29T06:12:36;12.50;99.90
8850;DHT22;5638;50.860;4.698;2022-12-29T06:15:03;12.40;99.90
8850;DHT22;5638;50.860;4.698;2022-12-29T06:17:29;12.50;99.90
8850;DHT22;5638;50.860;4.698;2022-12-29T06:19:55;12.50;99.90
8850;DHT22;5638;50.860;4.698;2022-12-29T06:22:20;12.40;99.90
8850;DHT22;5638;50.860;4.698;2022-12-29T06:24:46;12.40;99.90
8850;DHT22;5638;50.860;4.698;2022-12-29T06:27:12;12.40;99.90
8850;DHT22;5638;50.860;4.698;2022-12-29T06:29:39;12.50;99.90
8850;DHT22;5638;50.860;4.698;2022-12-29T06:32:06;12.40;99.90
8850;DHT22;5638;50.860;4.698;2022-12-29T06:34:32;12.40;99.90
8850;DHT22;5638;50.860;4.698;2022-12-29T06:36:58;12.50;99.90
8850;DHT22;5638;50.860;4.698;2022-12-29T06:39:24;12.50;99.90
8850;DHT22;5638;50.860;4.698;2022-12-29T06:41:52;12.50;99.90
8850;DHT22;5638;50.860;4.698;2022-12-29T06:44:22;12.50;99.90
8850;DHT22;5638;50.860;4.698;2022-12-29T06:46:48;12.50;99.90
8850;DHT22;5638;50.860;4.698;2022-12-29T06:49:15;12.60;99.90
8850;DHT22;5638;50.860;4.698;2022-12-29T06:51:42;12.50;99.90
8850;DHT22;5638;50.860;4.698;2022-12-29T06:54:08;12.50;99.90
8850;DHT22;5638;50.860;4.698;2022-12-29T06:56:34;12.50;99.90
8850;DHT22;5638;50.860;4.698;2022-12-29T06:58:59;12.50;99.90
8850;DHT22;5638;50.860;4.698;2022-12-29T07:01:26;12.50;99.90
8850;DHT22;5638;50.860;4.698;2022-12-29T07:03:52;12.50;99.90
8850;DHT22;5638;50.860;4.698;2022-12-29T07:06:18;12.60;99.90
8850;DHT22;5638;50.860;4.698;2022-12-29T07:08:44;12.60;99.90
8850;DHT22;5638;50.860;4.698;2022-12-29T07:11:10;12.60;99.90
8850;DHT22;5638;50.860;4.698;2022-12-29T07:13:36;12.50;99.90
8850;DHT22;5638;50.860;4.698;2022-12-29T07:16:06;12.40;99.90
8850;DHT22;5638;50.860;4.698;2022-12-29T07:18:33;12.50;99.90
8850;DHT22;5638;50.860;4.698;2022-12-29T07:21:00;12.50;99.90
8850;DHT22;5638;50.860;4.698;2022-12-29T07:23:26;12.50;99.90
8850;DHT22;5638;50.860;4.698;2022-12-29T07:26:06;12.50;99.90
8850;DHT22;5638;50.860;4.698;2022-12-29T07:28:36;12.50;99.90
8850;DHT22;5638;50.860;4.698;2022-12-29T07:31:03;12.60;99.90
8850;DHT22;5638;50.860;4.698;2022-12-29T07:33:31;12.50;99.90
8850;DHT22;5638;50.860;4.698;2022-12-29T07:35:57;12.40;99.90
8850;DHT22;5638;50.860;4.698;2022-12-29T07:38:24;12.40;99.90
8850;DHT22;5638;50.860;4.698;2022-12-29T07:40:49;12.40;99.90
8850;DHT22;5638;50.860;4.698;2022-12-29T07:43:15;12.40;99.90
8850;DHT22;5638;50.860;4.698;2022-12-29T07:45:41;12.50;99.90
8850;DHT22;5638;50.860;4.698;2022-12-29T07:48:07;12.40;99.90
8850;DHT22;5638;50.860;4.698;2022-12-29T07:50:37;12.40;99.90
8850;DHT22;5638;50.860;4.698;2022-12-29T07:53:03;12.20;99.90
8850;DHT22;5638;50.860;4.698;2022-12-29T07:55:29;12.30;99.90
8850;DHT22;5638;50.860;4.698;2022-12-29T07:57:56;12.40;99.90
8850;DHT22;5638;50.860;4.698;2022-12-29T08:00:22;12.40;99.90
8850;DHT22;5638;50.860;4.698;2022-12-29T08:02:49;12.50;99.90
8850;DHT22;5638;50.860;4.698;2022-12-29T08:05:15;12.50;99.90
8850;DHT22;5638;50.860;4.698;2022-12-29T08:07:45;12.30;99.90
8850;DHT22;5638;50.860;4.698;2022-12-29T08:10:11;12.30;99.90
8850;DHT22;5638;50.860;4.698;2022-12-29T08:12:39;12.30;99.90
8850;DHT22;5638;50.860;4.698;2022-12-29T08:15:07;12.40;99.90
8850;DHT22;5638;50.860;4.698;2022-12-29T08:17:34;12.50;99.90
8850;DHT22;5638;50.860;4.698;2022-12-29T08:20:00;12.40;99.90
8850;DHT22;5638;50.860;4.698;2022-12-29T08:22:26;12.30;99.90
8850;DHT22;5638;50.860;4.698;2022-12-29T08:24:51;12.30;99.90
8850;DHT22;5638;50.860;4.698;2022-12-29T08:27:18;12.20;99.90
8850;DHT22;5638;50.860;4.698;2022-12-29T08:29:44;12.10;99.90
8850;DHT22;5638;50.860;4.698;2022-12-29T08:32:10;12.10;99.90
8850;DHT22;5638;50.860;4.698;2022-12-29T08:34:37;12.10;99.90
8850;DHT22;5638;50.860;4.698;2022-12-29T08:37:03;12.10;99.90
8850;DHT22;5638;50.860;4.698;2022-12-29T08:39:29;12.10;99.90
8850;DHT22;5638;50.860;4.698;2022-12-29T08:41:55;12.30;99.90
8850;DHT22;5638;50.860;4.698;2022-12-29T08:44:21;12.40;99.90
8850;DHT22;5638;50.860;4.698;2022-12-29T08:46:47;12.50;99.90
8850;DHT22;5638;50.860;4.698;2022-12-29T08:49:13;12.40;99.90
8850;DHT22;5638;50.860;4.698;2022-12-29T08:51:39;12.30;99.90
8850;DHT22;5638;50.860;4.698;2022-12-29T08:54:05;12.30;99.90
8850;DHT22;5638;50.860;4.698;2022-12-29T08:56:31;12.30;99.90
8850;DHT22;5638;50.860;4.698;2022-12-29T08:58:57;12.30;99.90
8850;DHT22;5638;50.860;4.698;2022-12-29T09:01:23;12.20;99.90
8850;DHT22;5638;50.860;4.698;2022-12-29T09:03:49;12.20;99.90
8850;DHT22;5638;50.860;4.698;2022-12-29T09:06:17;12.10;99.90
8850;DHT22;5638;50.860;4.698;2022-12-29T09:08:43;12.20;99.90
8850;DHT22;5638;50.860;4.698;2022-12-29T09:11:19;12.10;99.90
8850;DHT22;5638;50.860;4.698;2022-12-29T09:13:47;12.00;99.90
8850;DHT22;5638;50.860;4.698;2022-12-29T09:16:14;12.10;99.90
8850;DHT22;5638;50.860;4.698;2022-12-29T09:18:41;12.10;99.90
8850;DHT22;5638;50.860;4.698;2022-12-29T09:21:09;12.00;99.90
8850;DHT22;5638;50.860;4.698;2022-12-29T09:23:36;12.00;99.90
8850;DHT22;5638;50.860;4.698;2022-12-29T09:26:02;12.10;99.90
8850;DHT22;5638;50.860;4.698;2022-12-29T09:28:29;12.10;99.90
8850;DHT22;5638;50.860;4.698;2022-12-29T09:30:56;12.20;99.90
8850;DHT22;5638;50.860;4.698;2022-12-29T09:33:24;12.30;99.90
8850;DHT22;5638;50.860;4.698;2022-12-29T09:35:52;12.40;99.90
8850;DHT22;5638;50.860;4.698;2022-12-29T09:38:21;12.40;99.90
8850;DHT22;5638;50.860;4.698;2022-12-29T09:40:56;12.40;99.90
8850;DHT22;5638;50.860;4.698;2022-12-29T09:43:42;12.40;99.90
8850;DHT22;5638;50.860;4.698;2022-12-29T09:46:49;12.40;99.90
8850;DHT22;5638;50.860;4.698;2022-12-29T09:49:26;12.60;99.90
8850;DHT22;5638;50.860;4.698;2022-12-29T09:52:06;12.70;99.90
8850;DHT22;5638;50.860;4.698;2022-12-29T09:54:51;13.20;99.90
8850;DHT22;5638;50.860;4.698;2022-12-29T09:57:27;13.30;99.90
8850;DHT22;5638;50.860;4.698;2022-12-29T10:00:14;13.30;99.90
8850;DHT22;5638;50.860;4.698;2022-12-29T10:03:09;13.60;99.90
8850;DHT22;5638;50.860;4.698;2022-12-29T10:05:48;13.30;99.90
8850;DHT22;5638;50.860;4.698;2022-12-29T10:08:43;13.10;99.90
8850;DHT22;5638;50.860;4.698;2022-12-29T10:20:44;12.90;99.90
8850;DHT22;5638;50.860;4.698;2022-12-29T10:23:45;12.80;99.90
8850;DHT22;5638;50.860;4.698;2022-12-29T10:26:19;12.70;99.90
8850;DHT22;5638;50.860;4.698;2022-12-29T10:28:50;12.70;99.90
8850;DHT22;5638;50.860;4.698;2022-12-29T10:34:24;12.80;99.90
8850;DHT22;5638;50.860;4.698;2022-12-29T10:37:25;12.80;99.90
8850;DHT22;5638;50.860;4.698;2022-12-29T10:39:52;12.60;99.90
8850;DHT22;5638;50.860;4.698;2022-12-29T10:42:38;12.80;99.90
8850;DHT22;5638;50.860;4.698;2022-12-29T10:45:13;12.90;99.90
8850;DHT22;5638;50.860;4.698;2022-12-29T10:47:51;12.90;99.90
8850;DHT22;5638;50.860;4.698;2022-12-29T10:50:37;13.00;99.90
8850;DHT22;5638;50.860;4.698;2022-12-29T10:53:15;12.90;99.90
8850;DHT22;5638;50.860;4.698;2022-12-29T10:55:46;12.80;99.90
8850;DHT22;5638;50.860;4.698;2022-12-29T10:58:14;12.90;99.90
8850;DHT22;5638;50.860;4.698;2022-12-29T11:00:42;12.90;99.90
8850;DHT22;5638;50.860;4.698;2022-12-29T11:06:09;12.90;99.90
8850;DHT22;5638;50.860;4.698;2022-12-29T11:09:00;12.70;99.90
8850;DHT22;5638;50.860;4.698;2022-12-29T11:11:35;12.70;99.90
8850;DHT22;5638;50.860;4.698;2022-12-29T11:14:16;12.60;99.90
8850;DHT22;5638;50.860;4.698;2022-12-29T11:16:44;12.60;99.90
8850;DHT22;5638;50.860;4.698;2022-12-29T11:19:28;12.80;99.90
8850;DHT22;5638;50.860;4.698;2022-12-29T11:22:13;12.70;99.90
8850;DHT22;5638;50.860;4.698;2022-12-29T11:24:47;12.60;99.90
8850;DHT22;5638;50.860;4.698;2022-12-29T11:27:17;12.50;99.90
8850;DHT22;5638;50.860;4.698;2022-12-29T11:29:49;12.60;99.90
8850;DHT22;5638;50.860;4.698;2022-12-29T11:32:28;12.60;99.90
8850;DHT22;5638;50.860;4.698;2022-12-29T11:34:58;12.60;99.90
8850;DHT22;5638;50.860;4.698;2022-12-29T11:37:31;12.70;99.90
8850;DHT22;5638;50.860;4.698;2022-12-29T11:40:06;12.60;99.90
8850;DHT22;5638;50.860;4.698;2022-12-29T11:45:18;12.50;99.90
8850;DHT22;5638;50.860;4.698;2022-12-29T11:47:52;12.50;99.90
8850;DHT22;5638;50.860;4.698;2022-12-29T11:50:30;12.60;99.90
8850;DHT22;5638;50.860;4.698;2022-12-29T11:55:31;12.50;99.90
8850;DHT22;5638;50.860;4.698;2022-12-29T11:58:00;12.50;99.90
8850;DHT22;5638;50.860;4.698;2022-12-29T12:00:32;12.60;99.90
8850;DHT22;5638;50.860;4.698;2022-12-29T12:03:11;12.50;99.90
8850;DHT22;5638;50.860;4.698;2022-12-29T12:05:50;12.50;99.90
8850;DHT22;5638;50.860;4.698;2022-12-29T12:08:51;12.50;99.90
8850;DHT22;5638;50.860;4.698;2022-12-29T12:11:32;12.50;99.90
8850;DHT22;5638;50.860;4.698;2022-12-29T12:14:30;12.50;99.90
8850;DHT22;5638;50.860;4.698;2022-12-29T12:17:14;12.50;99.90
8850;DHT22;5638;50.860;4.698;2022-12-29T12:19:49;12.60;99.90
8850;DHT22;5638;50.860;4.698;2022-12-29T12:25:40;12.60;99.90
8850;DHT22;5638;50.860;4.698;2022-12-29T12:28:19;12.70;99.90
8850;DHT22;5638;50.860;4.698;2022-12-29T12:30:55;12.60;99.90
8850;DHT22;5638;50.860;4.698;2022-12-29T12:33:28;12.60;99.90
8850;DHT22;5638;50.860;4.698;2022-12-29T12:39:15;12.40;99.90
8850;DHT22;5638;50.860;4.698;2022-12-29T12:51:10;12.50;99.90
8850;DHT22;5638;50.860;4.698;2022-12-29T12:56:44;12.40;99.90
8850;DHT22;5638;50.860;4.698;2022-12-29T13:00:00;12.40;99.90
8850;DHT22;5638;50.860;4.698;2022-12-29T13:05:56;12.50;99.90
8850;DHT22;5638;50.860;4.698;2022-12-29T13:18:02;12.60;99.90
8850;DHT22;5638;50.860;4.698;2022-12-29T13:20:36;12.40;99.90
8850;DHT22;5638;50.860;4.698;2022-12-29T13:23:55;12.50;99.90
8850;DHT22;5638;50.860;4.698;2022-12-29T13:26:31;12.60;99.90
8850;DHT22;5638;50.860;4.698;2022-12-29T13:29:22;12.60;99.90
8850;DHT22;5638;50.860;4.698;2022-12-29T13:40:34;12.80;99.90
8850;DHT22;5638;50.860;4.698;2022-12-29T13:43:05;12.70;99.90
8850;DHT22;5638;50.860;4.698;2022-12-29T13:45:32;12.70;99.90
8850;DHT22;5638;50.860;4.698;2022-12-29T13:50:48;12.60;99.90
8850;DHT22;5638;50.860;4.698;2022-12-29T13:58:59;12.30;99.90
8850;DHT22;5638;50.860;4.698;2022-12-29T14:01:37;12.30;99.90
8850;DHT22;5638;50.860;4.698;2022-12-29T14:04:34;12.30;99.90
8850;DHT22;5638;50.860;4.698;2022-12-29T14:07:12;12.40;99.90
8850;DHT22;5638;50.860;4.698;2022-12-29T14:09:53;12.70;99.90
8850;DHT22;5638;50.860;4.698;2022-12-29T14:12:42;12.70;99.90
8850;DHT22;5638;50.860;4.698;2022-12-29T14:17:35;13.00;99.90
8850;DHT22;5638;50.860;4.698;2022-12-29T14:20:03;12.90;99.90
8850;DHT22;5638;50.860;4.698;2022-12-29T14:22:33;12.90;99.90
8850;DHT22;5638;50.860;4.698;2022-12-29T14:24:59;12.60;99.90
8850;DHT22;5638;50.860;4.698;2022-12-29T14:29:54;12.40;99.90
8850;DHT22;5638;50.860;4.698;2022-12-29T14:34:59;12.30;99.90
8850;DHT22;5638;50.860;4.698;2022-12-29T14:37:46;12.20;99.90
8850;DHT22;5638;50.860;4.698;2022-12-29T14:40:19;12.10;99.90
8850;DHT22;5638;50.860;4.698;2022-12-29T14:42:55;12.10;99.90
8850;DHT22;5638;50.860;4.698;2022-12-29T14:45:31;12.10;99.90
8850;DHT22;5638;50.860;4.698;2022-12-29T14:48:31;12.10;99.90
8850;DHT22;5638;50.860;4.698;2022-12-29T14:51:20;12.10;99.90
8850;DHT22;5638;50.860;4.698;2022-12-29T14:53:54;12.10;99.90
8850;DHT22;5638;50.860;4.698;2022-12-29T14:56:26;12.10;99.90
8850;DHT22;5638;50.860;4.698;2022-12-29T15:01:38;12.10;99.90
8850;DHT22;5638;50.860;4.698;2022-12-29T15:04:25;12.10;99.90
8850;DHT22;5638;50.860;4.698;2022-12-29T15:06:56;12.00;99.90
8850;DHT22;5638;50.860;4.698;2022-12-29T15:09:42;12.20;99.90
8850;DHT22;5638;50.860;4.698;2022-12-29T15:12:45;12.20;99.90
8850;DHT22;5638;50.860;4.698;2022-12-29T15:17:50;12.10;99.90
8850;DHT22;5638;50.860;4.698;2022-12-29T15:20:28;12.10;99.90
8850;DHT22;5638;50.860;4.698;2022-12-29T15:23:00;12.10;99.90
8850;DHT22;5638;50.860;4.698;2022-12-29T15:25:30;12.20;99.90
8850;DHT22;5638;50.860;4.698;2022-12-29T15:28:02;12.10;99.90
8850;DHT22;5638;50.860;4.698;2022-12-29T15:30:32;12.10;99.90
8850;DHT22;5638;50.860;4.698;2022-12-29T15:32:59;11.90;99.90
8850;DHT22;5638;50.860;4.698;2022-12-29T15:35:36;12.00;99.90
8850;DHT22;5638;50.860;4.698;2022-12-29T15:38:19;12.00;99.90
8850;DHT22;5638;50.860;4.698;2022-12-29T15:40:55;11.90;99.90
8850;DHT22;5638;50.860;4.698;2022-12-29T15:46:44;11.30;99.90
8850;DHT22;5638;50.860;4.698;2022-12-29T15:49:14;11.20;99.90
8850;DHT22;5638;50.860;4.698;2022-12-29T15:51:41;11.00;99.90
8850;DHT22;5638;50.860;4.698;2022-12-29T15:54:20;10.90;99.90
8850;DHT22;5638;50.860;4.698;2022-12-29T15:56:48;10.90;99.90
8850;DHT22;5638;50.860;4.698;2022-12-29T15:59:26;10.90;99.90
8850;DHT22;5638;50.860;4.698;2022-12-29T16:02:00;10.90;99.90
8850;DHT22;5638;50.860;4.698;2022-12-29T16:04:30;10.80;99.90
8850;DHT22;5638;50.860;4.698;2022-12-29T16:07:00;10.70;99.90
8850;DHT22;5638;50.860;4.698;2022-12-29T16:12:04;10.80;99.90
8850;DHT22;5638;50.860;4.698;2022-12-29T16:17:15;10.80;99.90
8850;DHT22;5638;50.860;4.698;2022-12-29T16:19:53;10.80;99.90
8850;DHT22;5638;50.860;4.698;2022-12-29T16:22:29;10.80;99.90
8850;DHT22;5638;50.860;4.698;2022-12-29T16:25:04;10.90;99.90
8850;DHT22;5638;50.860;4.698;2022-12-29T16:27:41;10.90;99.90
8850;DHT22;5638;50.860;4.698;2022-12-29T16:30:24;10.90;99.90
8850;DHT22;5638;50.860;4.698;2022-12-29T16:32:54;11.00;99.90
8850;DHT22;5638;50.860;4.698;2022-12-29T16:35:27;11.00;99.90
8850;DHT22;5638;50.860;4.698;2022-12-29T16:38:18;10.90;99.90
8850;DHT22;5638;50.860;4.698;2022-12-29T16:43:33;10.90;99.90
8850;DHT22;5638;50.860;4.698;2022-12-29T16:46:28;10.80;99.90
8850;DHT22;5638;50.860;4.698;2022-12-29T16:48:56;10.70;99.90
8850;DHT22;5638;50.860;4.698;2022-12-29T16:51:34;10.70;99.90
8850;DHT22;5638;50.860;4.698;2022-12-29T16:54:03;10.80;99.90
8850;DHT22;5638;50.860;4.698;2022-12-29T16:56:36;10.70;99.90
8850;DHT22;5638;50.860;4.698;2022-12-29T17:02:14;10.70;99.90
8850;DHT22;5638;50.860;4.698;2022-12-29T17:04:42;10.70;99.90
8850;DHT22;5638;50.860;4.698;2022-12-29T17:07:19;10.60;99.90
8850;DHT22;5638;50.860;4.698;2022-12-29T17:09:47;10.50;99.90
8850;DHT22;5638;50.860;4.698;2022-12-29T17:12:18;10.50;99.90
8850;DHT22;5638;50.860;4.698;2022-12-29T17:14:52;10.40;99.90
8850;DHT22;5638;50.860;4.698;2022-12-29T17:19:59;10.20;99.90
8850;DHT22;5638;50.860;4.698;2022-12-29T17:22:28;10.30;99.90
8850;DHT22;5638;50.860;4.698;2022-12-29T17:24:57;10.30;99.90
8850;DHT22;5638;50.860;4.698;2022-12-29T17:27:31;10.30;99.90
8850;DHT22;5638;50.860;4.698;2022-12-29T17:30:14;10.40;99.90
8850;DHT22;5638;50.860;4.698;2022-12-29T17:32:48;10.50;99.90
8850;DHT22;5638;50.860;4.698;2022-12-29T17:35:18;10.50;99.90
8850;DHT22;5638;50.860;4.698;2022-12-29T17:37:46;10.60;99.90
8850;DHT22;5638;50.860;4.698;2022-12-29T17:40:15;10.60;99.90
8850;DHT22;5638;50.860;4.698;2022-12-29T17:42:47;10.70;99.90
8850;DHT22;5638;50.860;4.698;2022-12-29T17:45:22;10.70;99.90
8850;DHT22;5638;50.860;4.698;2022-12-29T17:47:50;10.70;99.90
8850;DHT22;5638;50.860;4.698;2022-12-29T17:50:18;10.80;99.90
8850;DHT22;5638;50.860;4.698;2022-12-29T17:53:06;10.90;99.90
8850;DHT22;5638;50.860;4.698;2022-12-29T17:55:46;10.90;99.90
8850;DHT22;5638;50.860;4.698;2022-12-29T17:58:24;10.80;99.90
8850;DHT22;5638;50.860;4.698;2022-12-29T18:00:56;10.90;99.90
8850;DHT22;5638;50.860;4.698;2022-12-29T18:03:30;10.80;99.90
8850;DHT22;5638;50.860;4.698;2022-12-29T18:05:59;10.80;99.90
8850;DHT22;5638;50.860;4.698;2022-12-29T18:08:25;10.90;99.90
8850;DHT22;5638;50.860;4.698;2022-12-29T18:10:54;10.80;99.90
8850;DHT22;5638;50.860;4.698;2022-12-29T18:13:26;10.70;99.90
8850;DHT22;5638;50.860;4.698;2022-12-29T18:15:54;10.60;99.90
8850;DHT22;5638;50.860;4.698;2022-12-29T18:18:22;10.60;99.90
8850;DHT22;5638;50.860;4.698;2022-12-29T18:20:52;10.50;99.90
8850;DHT22;5638;50.860;4.698;2022-12-29T18:23:27;10.40;99.90
8850;DHT22;5638;50.860;4.698;2022-12-29T18:26:11;10.40;99.90
8850;DHT22;5638;50.860;4.698;2022-12-29T18:28:40;10.50;99.90
8850;DHT22;5638;50.860;4.698;2022-12-29T18:31:22;10.30;99.90
8850;DHT22;5638;50.860;4.698;2022-12-29T18:33:51;10.40;99.90
8850;DHT22;5638;50.860;4.698;2022-12-29T18:36:20;10.40;99.90
8850;DHT22;5638;50.860;4.698;2022-12-29T18:38:47;10.30;99.90
8850;DHT22;5638;50.860;4.698;2022-12-29T18:41:17;10.40;99.90
8850;DHT22;5638;50.860;4.698;2022-12-29T18:43:54;10.30;99.90
8850;DHT22;5638;50.860;4.698;2022-12-29T18:46:20;10.30;99.90